Cameron, Louisiana
Current Conditions -  °F | °C
As of 2:35 AM on Friday 28 Nov 2014 (Local Time) from KCVW Reporting Station
Clear Clear  
Wind Chill: 42°   Ceiling: Unl
Heat Index: 45°   Visibility: 10mi
Dew Point: 37°   Wind: 5mph
Humidity: 76%   Direction: 70°ENE
Pressure: 30.43"   Gusts: NA
Location:  29.8°N, 93.33°W
Report Text: KCVW 280835Z AUTO 07004KT 10SM CLR 07/03 A3043 RMK A01
Loading
Personal Weather Stations






























Interactive Weather Map New forecast layout! Learn more

10-Day Weather Forecast

Advertisements
Track Severe Weather on mobile